createdAt,value
2022-08-19T00:01:45.942Z,6.93
2022-08-19T00:04:21.102Z,6.22
2022-08-19T00:06:48.855Z,6.75
2022-08-19T00:09:17.924Z,7.30
2022-08-19T00:11:45.669Z,7.97
2022-08-19T00:14:13.796Z,7.57
2022-08-19T00:16:42.208Z,6.75
2022-08-19T00:19:09.817Z,6.45
2022-08-19T00:21:40.720Z,8.05
2022-08-19T00:24:11.195Z,6.70
2022-08-19T00:26:39.543Z,7.10
2022-08-19T00:31:33.754Z,5.82
2022-08-19T00:34:00.892Z,8.15
2022-08-19T00:36:29.494Z,6.60
2022-08-19T00:38:56.720Z,8.00
2022-08-19T00:41:25.398Z,7.95
2022-08-19T00:44:00.326Z,6.07
2022-08-19T00:46:27.786Z,7.22
2022-08-19T00:48:55.651Z,6.32
2022-08-19T00:51:23.176Z,7.22
2022-08-19T00:53:50.319Z,8.52
2022-08-19T00:56:18.216Z,8.45
2022-08-19T00:58:45.362Z,7.53
2022-08-19T01:01:12.539Z,5.30
2022-08-19T01:03:57.958Z,5.85
2022-08-19T01:06:25.997Z,7.20
2022-08-19T01:08:53.164Z,5.55
2022-08-19T01:11:20.300Z,7.00
2022-08-19T01:13:49.790Z,5.80
2022-08-19T01:16:18.388Z,6.03
2022-08-19T01:18:45.524Z,6.07
2022-08-19T01:21:17.356Z,7.88
2022-08-19T01:23:45.178Z,7.55
2022-08-19T01:26:19.996Z,6.80
2022-08-19T01:28:48.196Z,5.55
2022-08-19T01:31:27.353Z,6.32
2022-08-19T01:33:56.144Z,5.82
2022-08-19T01:36:26.532Z,4.95
2022-08-19T01:38:53.770Z,5.55
2022-08-19T01:41:21.288Z,7.20
2022-08-19T01:44:13.892Z,7.10
2022-08-19T01:46:35.860Z,7.05
2022-08-19T01:49:04.690Z,5.88
2022-08-19T01:51:31.823Z,8.25
2022-08-19T01:54:07.458Z,6.72
2022-08-19T01:56:34.576Z,5.20
2022-08-19T01:59:03.476Z,5.65
2022-08-19T02:01:35.637Z,6.28
2022-08-19T02:04:03.131Z,4.93
2022-08-19T02:06:30.707Z,6.22
2022-08-19T02:08:57.902Z,4.57
2022-08-19T02:11:32.397Z,7.40
2022-08-19T02:13:59.952Z,5.30
2022-08-19T02:16:27.177Z,8.20
2022-08-19T02:18:54.253Z,6.85
2022-08-19T02:21:22.221Z,6.40
2022-08-19T02:23:49.470Z,7.03
2022-08-19T02:26:17.184Z,6.68
2022-08-19T02:28:44.603Z,6.40
2022-08-19T02:31:12.544Z,5.97
2022-08-19T02:33:40.027Z,6.97
2022-08-19T02:36:07.653Z,5.97
2022-08-19T02:38:35.613Z,6.50
2022-08-19T02:41:05.388Z,5.35
2022-08-19T02:43:34.791Z,5.45
2022-08-19T02:46:02.154Z,5.45
2022-08-19T02:48:29.285Z,5.90
2022-08-19T02:50:56.559Z,4.78
2022-08-19T02:53:25.038Z,6.55
2022-08-19T02:58:19.599Z,5.57
2022-08-19T03:00:48.784Z,4.88
2022-08-19T03:03:16.311Z,5.85
2022-08-19T03:05:55.926Z,5.28
2022-08-19T03:08:23.490Z,6.10
2022-08-19T03:10:50.669Z,5.28
2022-08-19T03:13:19.308Z,6.32
2022-08-19T03:15:48.331Z,4.85
2022-08-19T03:18:15.612Z,5.95
2022-08-19T03:20:49.545Z,5.63
2022-08-19T03:23:17.323Z,6.60
2022-08-19T03:25:46.067Z,7.03
2022-08-19T03:28:14.197Z,5.60
2022-08-19T03:30:43.649Z,8.57
2022-08-19T03:33:18.042Z,6.55
2022-08-19T03:38:13.154Z,8.50
2022-08-19T03:40:40.271Z,9.07
2022-08-19T03:43:07.365Z,8.23
2022-08-19T03:45:34.488Z,7.13
2022-08-19T03:48:01.568Z,7.53
2022-08-19T03:50:28.694Z,6.90
2022-08-19T03:52:55.901Z,8.10
2022-08-19T03:55:24.057Z,6.60
2022-08-19T03:57:51.176Z,5.60
2022-08-19T04:00:18.530Z,8.00
2022-08-19T04:02:58.506Z,8.85
2022-08-19T04:05:29.490Z,7.53
2022-08-19T04:08:00.099Z,9.48
2022-08-19T04:10:28.556Z,11.50
2022-08-19T04:12:55.677Z,7.18
2022-08-19T04:15:22.825Z,9.13
2022-08-19T04:17:49.901Z,10.73
2022-08-19T04:20:17.054Z,8.07
2022-08-19T04:22:44.157Z,7.75
2022-08-19T04:25:11.602Z,7.72
2022-08-19T04:27:38.778Z,7.40
2022-08-19T04:30:06.117Z,7.85
2022-08-19T04:32:33.231Z,7.15
2022-08-19T04:35:02.548Z,8.43
2022-08-19T04:37:43.789Z,8.57
2022-08-19T04:40:29.941Z,8.15
2022-08-19T04:42:57.368Z,8.88
2022-08-19T04:45:24.513Z,9.73
2022-08-19T04:47:57.790Z,9.52
2022-08-19T04:50:25.606Z,10.25
2022-08-19T04:52:53.459Z,8.77
2022-08-19T04:55:20.642Z,11.65
2022-08-19T04:57:47.831Z,9.90
2022-08-19T05:00:15.056Z,9.15
2022-08-19T05:02:42.240Z,10.23
2022-08-19T05:05:09.475Z,10.05
2022-08-19T05:07:37.392Z,10.13
2022-08-19T05:10:06.286Z,9.32
2022-08-19T05:12:33.417Z,9.68
2022-08-19T05:15:01.265Z,9.18
2022-08-19T05:17:32.284Z,9.88
2022-08-19T05:20:21.280Z,11.02
2022-08-19T05:22:49.100Z,8.68
2022-08-19T05:25:19.953Z,7.50
2022-08-19T05:27:47.184Z,8.48
2022-08-19T05:30:14.680Z,10.57
2022-08-19T05:32:42.179Z,9.27
2022-08-19T05:35:10.345Z,8.57
2022-08-19T05:37:37.488Z,12.00
2022-08-19T05:40:05.327Z,11.73
2022-08-19T05:42:32.951Z,9.57
2022-08-19T05:45:00.113Z,13.15
2022-08-19T05:47:27.227Z,12.27
2022-08-19T05:49:54.416Z,11.52
2022-08-19T05:52:25.957Z,12.52
2022-08-19T05:54:55.799Z,13.18
2022-08-19T05:57:23.884Z,17.90
2022-08-19T05:59:53.242Z,16.10
2022-08-19T06:02:26.889Z,20.75
2022-08-19T06:04:54.080Z,19.50
2022-08-19T06:07:21.365Z,17.38
2022-08-19T06:10:00.091Z,20.20
2022-08-19T06:12:31.587Z,19.48
2022-08-19T06:15:00.811Z,21.50
2022-08-19T06:17:28.547Z,22.23
2022-08-19T06:19:55.638Z,22.35
2022-08-19T06:22:22.760Z,27.40
2022-08-19T06:24:53.542Z,24.45
2022-08-19T06:27:21.076Z,26.27
2022-08-19T06:29:48.309Z,25.80
2022-08-19T06:32:17.300Z,24.48
2022-08-19T06:34:44.784Z,28.17
2022-08-19T06:37:12.895Z,29.35
2022-08-19T06:39:41.131Z,30.20
2022-08-19T06:42:12.232Z,31.88
2022-08-19T06:44:42.460Z,30.45
2022-08-19T06:47:14.606Z,34.25
2022-08-19T06:49:42.737Z,38.92
2022-08-19T06:52:13.803Z,46.63
2022-08-19T06:54:55.711Z,43.80
2022-08-19T06:57:24.844Z,49.28
2022-08-19T06:59:52.143Z,50.47
2022-08-19T07:02:19.994Z,51.38
2022-08-19T07:04:47.085Z,50.72
2022-08-19T07:07:20.949Z,49.25
2022-08-19T07:12:24.256Z,47.28
2022-08-19T07:14:51.573Z,50.60
2022-08-19T07:17:21.124Z,43.45
2022-08-19T07:19:49.145Z,45.33
2022-08-19T07:22:17.259Z,42.75
2022-08-19T07:27:22.532Z,36.42
2022-08-19T07:29:56.221Z,38.08
2022-08-19T07:32:26.886Z,39.65
2022-08-19T07:34:54.213Z,37.47
2022-08-19T07:37:21.437Z,45.80
2022-08-19T07:39:48.675Z,36.00
2022-08-19T07:42:15.872Z,36.38
2022-08-19T07:44:50.014Z,33.50
2022-08-19T07:47:47.395Z,41.08
2022-08-19T07:50:08.036Z,39.00
2022-08-19T07:52:37.219Z,35.25
2022-08-19T07:55:05.324Z,37.03
2022-08-19T07:57:32.572Z,38.95
2022-08-19T08:00:00.019Z,35.50
2022-08-19T08:02:27.210Z,35.65
2022-08-19T08:05:13.229Z,28.25
2022-08-19T08:07:59.192Z,35.47
2022-08-19T08:10:26.622Z,31.95
2022-08-19T08:13:09.608Z,28.95
2022-08-19T08:15:42.185Z,31.67
2022-08-19T08:18:10.572Z,29.25
2022-08-19T08:20:37.720Z,32.42
2022-08-19T08:23:23.376Z,26.95
2022-08-19T08:25:50.719Z,28.23
2022-08-19T08:28:18.767Z,27.90
2022-08-19T08:30:48.373Z,28.02
2022-08-19T08:33:19.409Z,29.20
2022-08-19T08:36:00.562Z,28.02
2022-08-19T08:38:29.497Z,28.73
2022-08-19T08:41:11.365Z,30.58
2022-08-19T08:43:42.370Z,28.50
2022-08-19T08:46:12.298Z,29.23
2022-08-19T08:48:52.893Z,25.58
2022-08-19T08:51:22.619Z,23.55
2022-08-19T08:53:51.178Z,22.52
2022-08-19T08:56:24.044Z,29.42
2022-08-19T09:01:21.749Z,24.10
2022-08-19T09:03:48.894Z,24.02
2022-08-19T09:06:29.441Z,21.02
2022-08-19T09:09:04.782Z,22.17
2022-08-19T09:11:46.085Z,24.58
2022-08-19T09:14:35.037Z,21.90
2022-08-19T09:17:01.622Z,19.90
2022-08-19T09:19:29.442Z,19.92
2022-08-19T09:24:23.734Z,19.20
2022-08-19T09:26:59.293Z,23.73
2022-08-19T09:29:27.583Z,23.77
2022-08-19T09:31:55.124Z,18.52
2022-08-19T09:34:22.718Z,24.77
2022-08-19T09:36:54.140Z,22.77
2022-08-19T09:39:22.478Z,25.42
2022-08-19T09:41:50.870Z,22.77
2022-08-19T09:44:19.006Z,22.73
2022-08-19T09:46:48.050Z,25.65
2022-08-19T09:49:15.484Z,23.55
2022-08-19T09:51:43.857Z,28.17
2022-08-19T09:54:12.280Z,24.00
2022-08-19T09:56:39.433Z,24.20
2022-08-19T09:59:10.464Z,19.10
2022-08-19T10:01:37.700Z,21.10
2022-08-19T10:04:19.966Z,26.33
2022-08-19T10:06:48.592Z,25.40
2022-08-19T10:09:26.286Z,26.85
2022-08-19T10:12:02.539Z,24.48
2022-08-19T10:14:29.988Z,27.95
2022-08-19T10:16:57.554Z,26.83
2022-08-19T10:19:26.795Z,29.05
2022-08-19T10:21:58.570Z,28.58
2022-08-19T10:24:28.980Z,29.42
2022-08-19T10:26:59.063Z,33.65
2022-08-19T10:29:32.225Z,35.00
2022-08-19T10:32:02.724Z,33.80
2022-08-19T10:34:30.391Z,34.08
2022-08-19T10:37:01.266Z,32.75
2022-08-19T10:39:30.935Z,37.45
2022-08-19T10:41:58.888Z,31.35
2022-08-19T10:44:32.560Z,29.77
2022-08-19T10:47:00.937Z,33.70
2022-08-19T10:49:28.530Z,31.90
2022-08-19T10:52:20.705Z,35.63
2022-08-19T10:55:25.639Z,33.97
2022-08-19T10:58:02.496Z,32.30
2022-08-19T11:00:31.999Z,37.83
2022-08-19T11:02:59.157Z,31.65
2022-08-19T11:05:26.365Z,34.85
2022-08-19T11:07:53.797Z,35.25
2022-08-19T11:10:22.019Z,34.10
2022-08-19T11:12:54.033Z,35.95
2022-08-19T11:15:23.551Z,32.92
2022-08-19T11:17:51.733Z,35.38
2022-08-19T11:20:18.881Z,32.50
2022-08-19T11:22:46.010Z,31.77
2022-08-19T11:25:14.790Z,29.98
2022-08-19T11:27:43.581Z,29.73
2022-08-19T11:30:13.119Z,32.38
2022-08-19T11:32:44.465Z,34.75
2022-08-19T11:35:14.680Z,30.48
2022-08-19T11:37:41.865Z,28.25
2022-08-19T11:40:09.611Z,28.65
2022-08-19T11:42:55.411Z,34.08
2022-08-19T11:45:22.657Z,30.30
2022-08-19T11:47:50.117Z,28.98
2022-08-19T11:50:18.912Z,29.25
2022-08-19T11:52:46.174Z,28.60
2022-08-19T11:55:14.117Z,31.52
2022-08-19T11:57:42.206Z,30.45
2022-08-19T12:00:11.272Z,28.48
2022-08-19T12:02:38.369Z,28.75
2022-08-19T12:05:11.542Z,27.33
2022-08-19T12:07:39.618Z,24.33
2022-08-19T12:10:06.889Z,27.77
2022-08-19T12:12:35.417Z,26.38
2022-08-19T12:15:03.049Z,24.20
2022-08-19T12:17:31.708Z,23.92
2022-08-19T12:19:58.846Z,26.50
2022-08-19T12:22:26.086Z,23.02
2022-08-19T12:24:54.250Z,22.38
2022-08-19T12:27:32.240Z,26.00
2022-08-19T12:30:08.376Z,22.13
2022-08-19T12:32:35.635Z,23.55
2022-08-19T12:35:02.935Z,21.52
2022-08-19T12:37:32.519Z,22.52
2022-08-19T12:40:00.113Z,18.98
2022-08-19T12:42:27.445Z,19.90
2022-08-19T12:44:54.659Z,15.02
2022-08-19T12:47:22.164Z,13.68
2022-08-19T12:49:54.132Z,13.35
2022-08-19T12:52:23.702Z,14.05
2022-08-19T12:54:51.774Z,12.15
2022-08-19T12:57:22.211Z,10.48
2022-08-19T12:59:54.544Z,12.63
2022-08-19T13:02:22.350Z,13.05
2022-08-19T13:07:16.513Z,13.65
2022-08-19T13:09:43.714Z,16.73
2022-08-19T13:12:14.074Z,15.88
2022-08-19T13:14:42.122Z,17.48
2022-08-19T13:17:09.604Z,11.15
2022-08-19T13:19:38.253Z,15.30
2022-08-19T13:22:12.473Z,16.38
2022-08-19T13:24:46.839Z,15.80
2022-08-19T13:27:14.767Z,15.73
2022-08-19T13:30:03.598Z,16.38
2022-08-19T13:32:50.575Z,17.38
2022-08-19T13:35:18.188Z,13.48
2022-08-19T13:37:46.433Z,16.60
2022-08-19T13:40:19.191Z,16.50
2022-08-19T13:42:48.390Z,13.18
2022-08-19T13:45:17.417Z,11.20
2022-08-19T13:47:46.642Z,11.27
2022-08-19T13:50:14.768Z,13.60
2022-08-19T13:52:42.401Z,14.07
2022-08-19T13:55:10.533Z,11.23
2022-08-19T13:57:40.004Z,10.32
2022-08-19T14:00:20.774Z,10.88
2022-08-19T14:02:49.182Z,9.63
2022-08-19T14:05:17.536Z,11.77
2022-08-19T14:07:44.720Z,11.10
2022-08-19T14:10:12.564Z,11.07
2022-08-19T14:12:39.845Z,11.10
2022-08-19T14:15:08.104Z,8.50
2022-08-19T14:17:38.163Z,10.88
2022-08-19T14:20:11.029Z,9.93
2022-08-19T14:22:39.256Z,8.85
2022-08-19T14:25:08.000Z,9.68
2022-08-19T14:27:36.014Z,9.27
2022-08-19T14:32:30.798Z,6.80
2022-08-19T14:34:57.889Z,7.13
2022-08-19T14:37:25.072Z,10.23
2022-08-19T14:39:52.826Z,6.32
2022-08-19T14:42:20.128Z,7.05
2022-08-19T14:44:47.333Z,8.52
2022-08-19T14:47:14.562Z,7.07
2022-08-19T14:49:43.927Z,6.35
2022-08-19T14:52:13.365Z,8.45
2022-08-19T14:54:40.472Z,8.07
2022-08-19T14:57:07.655Z,5.88
2022-08-19T14:59:35.975Z,7.32
2022-08-19T15:02:34.003Z,7.38
2022-08-19T15:05:00.595Z,7.20
2022-08-19T15:07:28.896Z,8.00
2022-08-19T15:09:57.342Z,6.97
2022-08-19T15:12:25.009Z,6.72
2022-08-19T15:14:53.636Z,6.97
2022-08-19T15:17:43.652Z,7.53
2022-08-19T15:20:14.393Z,7.85
2022-08-19T15:22:42.125Z,7.70
2022-08-19T15:25:10.117Z,7.15
2022-08-19T15:27:42.144Z,8.40
2022-08-19T15:30:10.102Z,8.23
2022-08-19T15:35:05.019Z,7.90
2022-08-19T15:37:32.232Z,10.20
2022-08-19T15:40:05.402Z,9.32
2022-08-19T15:42:32.718Z,9.73
2022-08-19T15:45:00.602Z,10.00
2022-08-19T15:47:34.912Z,10.48
2022-08-19T15:50:05.531Z,9.95
2022-08-19T15:52:32.666Z,9.20
2022-08-19T15:55:00.833Z,11.25
2022-08-19T15:57:27.981Z,12.05
2022-08-19T16:00:14.078Z,11.90
2022-08-19T16:03:02.784Z,11.48
2022-08-19T16:05:49.553Z,10.70
2022-08-19T16:08:16.730Z,11.45
2022-08-19T16:10:43.854Z,8.95
2022-08-19T16:13:10.972Z,9.65
2022-08-19T16:15:41.553Z,8.45
2022-08-19T16:18:08.640Z,9.70
2022-08-19T16:20:36.417Z,8.25
2022-08-19T16:23:04.910Z,8.90
2022-08-19T16:25:32.132Z,9.20
2022-08-19T16:28:07.146Z,10.50
2022-08-19T16:30:36.336Z,8.02
2022-08-19T16:33:03.454Z,9.60
2022-08-19T16:35:30.540Z,8.15
2022-08-19T16:37:57.642Z,8.45
2022-08-19T16:40:25.118Z,9.43
2022-08-19T16:42:53.583Z,14.90
2022-08-19T16:45:21.955Z,15.57
2022-08-19T16:47:49.088Z,20.20
2022-08-19T16:50:21.974Z,12.98
2022-08-19T16:52:52.449Z,12.93
2022-08-19T16:55:21.208Z,12.57
2022-08-19T16:57:48.353Z,14.90
2022-08-19T17:00:15.783Z,15.68
2022-08-19T17:02:42.905Z,16.17
2022-08-19T17:05:10.787Z,12.18
2022-08-19T17:07:37.903Z,15.68
2022-08-19T17:10:05.670Z,15.50
2022-08-19T17:12:33.007Z,16.10
2022-08-19T17:15:02.116Z,15.95
2022-08-19T17:17:30.012Z,14.10
2022-08-19T17:19:57.766Z,15.02
2022-08-19T17:22:24.949Z,15.18
2022-08-19T17:24:52.089Z,12.65
2022-08-19T17:27:23.609Z,11.82
2022-08-19T17:29:50.740Z,13.40
2022-08-19T17:32:24.695Z,13.43
2022-08-19T17:34:54.058Z,12.68
2022-08-19T17:37:21.282Z,13.88
2022-08-19T17:39:48.469Z,11.35
2022-08-19T17:42:15.703Z,15.70
2022-08-19T17:44:44.841Z,10.82
2022-08-19T17:47:17.769Z,12.80
2022-08-19T17:49:44.878Z,16.38
2022-08-19T17:52:12.009Z,12.77
2022-08-19T17:54:39.188Z,9.70
2022-08-19T17:57:06.633Z,9.65
2022-08-19T17:59:33.967Z,6.88
2022-08-19T18:02:01.374Z,4.75
2022-08-19T18:04:29.899Z,6.30
2022-08-19T18:06:57.451Z,7.60
2022-08-19T18:09:30.003Z,7.25
2022-08-19T18:12:10.119Z,5.40
2022-08-19T18:14:39.278Z,4.00
2022-08-19T18:17:09.512Z,5.75
2022-08-19T18:19:40.771Z,5.53
2022-08-19T18:22:08.967Z,4.90
2022-08-19T18:24:38.581Z,4.43
2022-08-19T18:27:06.913Z,6.22
2022-08-19T18:29:34.162Z,5.82
2022-08-19T18:32:01.786Z,6.82
2022-08-19T18:34:30.436Z,4.95
2022-08-19T18:36:57.605Z,5.28
2022-08-19T18:39:44.367Z,5.80
2022-08-19T18:42:36.800Z,6.97
2022-08-19T18:45:23.367Z,5.82
2022-08-19T18:50:52.957Z,5.90
2022-08-19T18:53:20.499Z,7.28
2022-08-19T18:55:49.547Z,6.72
2022-08-19T18:58:16.833Z,6.63
2022-08-19T19:00:44.056Z,8.35
2022-08-19T19:03:11.661Z,6.13
2022-08-19T19:05:39.935Z,7.13
2022-08-19T19:10:36.187Z,6.15
2022-08-19T19:13:03.400Z,7.00
2022-08-19T19:15:30.550Z,39.17
2022-08-19T19:17:59.220Z,8.90
2022-08-19T19:20:36.394Z,7.90
2022-08-19T19:23:04.395Z,9.38
2022-08-19T19:25:50.235Z,7.85
2022-08-19T19:28:25.589Z,6.78
2022-08-19T19:30:53.772Z,6.82
2022-08-19T19:33:21.288Z,6.13
2022-08-19T19:35:48.412Z,6.25
2022-08-19T19:38:15.533Z,5.25
2022-08-19T19:40:42.712Z,6.05
2022-08-19T19:43:09.839Z,6.32
2022-08-19T19:45:38.033Z,7.00
2022-08-19T19:50:32.218Z,8.30
2022-08-19T19:52:59.387Z,10.52
2022-08-19T19:55:27.329Z,9.23
2022-08-19T19:57:54.622Z,8.25
2022-08-19T20:00:22.174Z,11.98
2022-08-19T20:02:50.925Z,10.52
2022-08-19T20:05:21.140Z,12.68
2022-08-19T20:08:07.186Z,11.20
2022-08-19T20:10:34.709Z,9.13
2022-08-19T20:13:02.405Z,11.27
2022-08-19T20:15:30.944Z,10.20
2022-08-19T20:17:58.273Z,10.60
2022-08-19T20:20:25.542Z,8.80
2022-08-19T20:22:53.895Z,9.27
2022-08-19T20:27:49.427Z,8.50
2022-08-19T20:30:19.816Z,17.25
2022-08-19T20:32:47.580Z,8.45
2022-08-19T20:35:16.469Z,11.60
2022-08-19T20:37:43.556Z,11.02
2022-08-19T20:40:11.584Z,9.63
2022-08-19T20:42:40.397Z,11.38
2022-08-19T20:45:21.556Z,11.50
2022-08-19T20:47:56.774Z,10.45
2022-08-19T20:50:23.897Z,11.20
2022-08-19T20:52:53.430Z,10.48
2022-08-19T20:55:21.932Z,11.18
2022-08-19T21:00:16.333Z,9.90
2022-08-19T21:02:43.496Z,11.48
2022-08-19T21:05:11.160Z,10.73
2022-08-19T21:07:39.056Z,15.75
2022-08-19T21:10:07.099Z,13.77
2022-08-19T21:12:34.212Z,12.85
2022-08-19T21:15:01.306Z,15.35
2022-08-19T21:17:28.397Z,13.60
2022-08-19T21:19:55.585Z,17.67
2022-08-19T21:22:22.767Z,13.50
2022-08-19T21:24:49.868Z,16.10
2022-08-19T21:27:16.957Z,10.98
2022-08-19T21:29:44.078Z,12.73
2022-08-19T21:32:13.977Z,11.65
2022-08-19T21:34:41.685Z,14.43
2022-08-19T21:37:17.577Z,16.35
2022-08-19T21:39:52.084Z,13.70
2022-08-19T21:44:47.508Z,18.50
2022-08-19T21:47:14.625Z,15.07
2022-08-19T21:49:41.999Z,16.55
2022-08-19T21:52:09.226Z,15.43
2022-08-19T21:54:37.887Z,15.15
2022-08-19T21:57:10.285Z,15.50
2022-08-19T21:59:41.175Z,17.80
2022-08-19T22:02:19.879Z,15.35
2022-08-19T22:04:47.846Z,13.95
2022-08-19T22:07:15.209Z,17.80
2022-08-19T22:09:43.319Z,16.35
2022-08-19T22:12:21.130Z,15.25
2022-08-19T22:14:48.251Z,16.83
2022-08-19T22:17:15.585Z,15.98
2022-08-19T22:19:42.711Z,17.80
2022-08-19T22:22:09.802Z,18.45
2022-08-19T22:24:36.892Z,18.60
2022-08-19T22:27:05.956Z,17.23
2022-08-19T22:29:36.509Z,17.92
2022-08-19T22:32:23.058Z,19.73
2022-08-19T22:34:51.991Z,18.00
2022-08-19T22:37:19.153Z,16.58
2022-08-19T22:39:46.270Z,17.38
2022-08-19T22:42:13.969Z,14.63
2022-08-19T22:44:41.135Z,16.17
2022-08-19T22:47:08.275Z,16.70
2022-08-19T22:49:35.353Z,15.05
2022-08-19T22:52:17.331Z,23.33
2022-08-19T22:54:45.740Z,19.40
2022-08-19T22:57:13.251Z,18.33
2022-08-19T22:59:40.420Z,19.92
2022-08-19T23:02:07.680Z,17.20
2022-08-19T23:04:35.260Z,20.98
2022-08-19T23:07:02.409Z,18.80
2022-08-19T23:09:30.538Z,16.73
2022-08-19T23:14:24.865Z,17.67
2022-08-19T23:16:54.149Z,18.55
2022-08-19T23:19:24.217Z,18.95
2022-08-19T23:21:52.545Z,21.00
2022-08-19T23:27:05.359Z,16.20
2022-08-19T23:29:51.217Z,17.55
2022-08-19T23:32:19.122Z,15.38
2022-08-19T23:34:46.505Z,15.10
2022-08-19T23:37:13.870Z,15.55
2022-08-19T23:39:41.053Z,17.35
2022-08-19T23:42:11.497Z,18.42
2022-08-19T23:44:52.301Z,20.58
2022-08-19T23:47:20.554Z,19.42
2022-08-19T23:49:48.701Z,17.15
2022-08-19T23:52:15.880Z,19.45
2022-08-19T23:54:44.046Z,19.58
2022-08-19T23:59:42.353Z,16.48
